Terminal Aerodrome Forecast
Issued by NWS Sterling, VA

Current Version | Previous Version | Text Only | Print | Product List | Glossary Off
Versions: 1 2 3 4 5 6 7 8 9 10 11 12 13 14 15 16 17 18

171
FTUS41 KLWX 291120
TAFMRB
TAF
KMRB 291120Z 2912/3012 32005KT P6SM OVC025
     FM291300 33006KT P6SM BKN035
     FM300100 00000KT P6SM BKN150=

USA.gov is the U.S. government's official web portal to all federal, state and local government web resources and services.